<?xml version="1.0" encoding="UTF-8" standalone="no" ?><gpx xmlns="http://www.topografix.com/GPX/1/1" xmlns:gpxx="http://www.garmin.com/xmlschemas/GpxExtensions/v3" xmlns:wptx1="http://www.garmin.com/xmlschemas/WaypointExtension/v1" xmlns:gpxtpx="http://www.garmin.com/xmlschemas/TrackPointExtension/v1" creator="GuideVTT.com" version="1.1" xmlns:xsi="http://www.w3.org/2001/XMLSchema-instance" xsi:schemaLocation="http://www.topografix.com/GPX/1/1 http://www.topografix.com/GPX/1/1/gpx.xsd http://www.garmin.com/xmlschemas/GpxExtensions/v3 http://www8.garmin.com/xmlschemas/GpxExtensionsv3.xsd http://www.garmin.com/xmlschemas/WaypointExtension/v1 http://www8.garmin.com/xmlschemas/WaypointExtensionv1.xsd http://www.garmin.com/xmlschemas/TrackPointExtension/v1 http://www.garmin.com/xmlschemas/TrackPointExtensionv1.xsd">
<metadata><link href="http://www.garmin.com"><text>Garmin International</text></link><time>2013-06-22T15:13:50Z</time></metadata>
<trk><name>oct08.gpx</name><extensions><gpxx:TrackExtension><gpxx:DisplayColor>Cyan</gpxx:DisplayColor></gpxx:TrackExtension></extensions><trkseg>
<trkpt lat="43.25396300" lon="0.39272600"><ele>0</ele><time>2008-10-19T19:36:26Z</time></trkpt>
<trkpt lat="43.25392200" lon="0.39262900"><ele>0</ele><time>2008-10-19T17:39:15Z</time></trkpt>
<trkpt lat="" lon=""><ele>0</ele><time>Year-Month#-Day#THour:Min:SecZ</time></trkpt>
<trkpt lat="43.25392200" lon="0.39262900"><ele>378.832886</ele><time>2008-10-19T17:39:15Z</time></trkpt>
<trkpt lat="43.25351300" lon="0.39253200"><ele>377.653839</ele><time>2008-10-19T17:39:26Z</time></trkpt>
<trkpt lat="43.25331900" lon="0.39192400"><ele>379.011383</ele><time>2008-10-19T17:39:39Z</time></trkpt>
<trkpt lat="43.25311300" lon="0.39146400"><ele>379.578613</ele><time>2008-10-19T17:39:49Z</time></trkpt>
<trkpt lat="43.25294100" lon="0.39105100"><ele>380.022064</ele><time>2008-10-19T17:39:58Z</time></trkpt>
<trkpt lat="43.25268900" lon="0.39065400"><ele>380.266754</ele><time>2008-10-19T17:40:09Z</time></trkpt>
<trkpt lat="43.25212100" lon="0.39021800"><ele>380.66507</ele><time>2008-10-19T17:40:26Z</time></trkpt>
<trkpt lat="43.25191500" lon="0.39011400"><ele>380.736298</ele><time>2008-10-19T17:40:32Z</time></trkpt>
<trkpt lat="43.25155600" lon="0.38969600"><ele>380.068085</ele><time>2008-10-19T17:40:44Z</time></trkpt>
<trkpt lat="43.25108000" lon="0.38933200"><ele>377.807068</ele><time>2008-10-19T17:40:59Z</time></trkpt>
<trkpt lat="43.25038100" lon="0.38908500"><ele>373.963593</ele><time>2008-10-19T17:41:18Z</time></trkpt>
<trkpt lat="43.24973300" lon="0.38886100"><ele>369.097626</ele><time>2008-10-19T17:41:36Z</time></trkpt>
<trkpt lat="43.24915300" lon="0.38867100"><ele>365.829498</ele><time>2008-10-19T17:41:52Z</time></trkpt>
<trkpt lat="43.24882500" lon="0.38842400"><ele>366.545349</ele><time>2008-10-19T17:42:02Z</time></trkpt>
<trkpt lat="43.24806200" lon="0.38771200"><ele>368.325775</ele><time>2008-10-19T17:42:27Z</time></trkpt>
<trkpt lat="43.24777200" lon="0.38716900"><ele>368.966522</ele><time>2008-10-19T17:42:40Z</time></trkpt>
<trkpt lat="43.24721500" lon="0.38670800"><ele>371.583496</ele><time>2008-10-19T17:42:57Z</time></trkpt>
<trkpt lat="43.24652100" lon="0.38649800"><ele>372.237762</ele><time>2008-10-19T17:43:16Z</time></trkpt>
<trkpt lat="43.24609000" lon="0.38619300"><ele>374.186005</ele><time>2008-10-19T17:43:29Z</time></trkpt>
<trkpt lat="43.24552500" lon="0.38578200"><ele>378.52713</ele><time>2008-10-19T17:43:46Z</time></trkpt>
<trkpt lat="43.24507100" lon="0.38544100"><ele>379.607391</ele><time>2008-10-19T17:44:00Z</time></trkpt>
<trkpt lat="43.24473200" lon="0.38526800"><ele>382.780579</ele><time>2008-10-19T17:44:10Z</time></trkpt>
<trkpt lat="43.24411800" lon="0.38514100"><ele>388.891449</ele><time>2008-10-19T17:44:26Z</time></trkpt>
<trkpt lat="43.24369800" lon="0.38497100"><ele>390.363647</ele><time>2008-10-19T17:44:38Z</time></trkpt>
<trkpt lat="43.24320200" lon="0.38457000"><ele>387.760437</ele><time>2008-10-19T17:44:53Z</time></trkpt>
<trkpt lat="43.24282500" lon="0.38417700"><ele>386.374237</ele><time>2008-10-19T17:45:06Z</time></trkpt>
<trkpt lat="43.24234400" lon="0.38386100"><ele>385.594513</ele><time>2008-10-19T17:45:20Z</time></trkpt>
<trkpt lat="43.24143200" lon="0.38321600"><ele>386.591339</ele><time>2008-10-19T17:45:48Z</time></trkpt>
<trkpt lat="43.24084500" lon="0.38278200"><ele>390.206116</ele><time>2008-10-19T17:46:05Z</time></trkpt>
<trkpt lat="43.24020000" lon="0.38217700"><ele>394.527466</ele><time>2008-10-19T17:46:26Z</time></trkpt>
<trkpt lat="43.23979900" lon="0.38178400"><ele>397.642303</ele><time>2008-10-19T17:46:39Z</time></trkpt>
<trkpt lat="43.23944500" lon="0.38146400"><ele>399.305328</ele><time>2008-10-19T17:46:51Z</time></trkpt>
<trkpt lat="43.23917000" lon="0.38117900"><ele>402.079346</ele><time>2008-10-19T17:47:00Z</time></trkpt>
<trkpt lat="43.23881900" lon="0.38074800"><ele>401.791229</ele><time>2008-10-19T17:47:13Z</time></trkpt>
<trkpt lat="43.23852200" lon="0.38097900"><ele>397.181915</ele><time>2008-10-19T17:47:22Z</time></trkpt>
<trkpt lat="43.23818600" lon="0.38102800"><ele>393.821289</ele><time>2008-10-19T17:47:31Z</time></trkpt>
<trkpt lat="43.23785400" lon="0.38084300"><ele>394.014679</ele><time>2008-10-19T17:47:40Z</time></trkpt>
<trkpt lat="43.23751800" lon="0.38097700"><ele>390.552673</ele><time>2008-10-19T17:47:50Z</time></trkpt>
<trkpt lat="43.23752200" lon="0.38143100"><ele>385.658264</ele><time>2008-10-19T17:47:58Z</time></trkpt>
<trkpt lat="43.23767900" lon="0.38179500"><ele>383.143951</ele><time>2008-10-19T17:48:07Z</time></trkpt>
<trkpt lat="43.23757600" lon="0.38218000"><ele>380.732269</ele><time>2008-10-19T17:48:15Z</time></trkpt>
<trkpt lat="43.23647700" lon="0.38342200"><ele>372.811432</ele><time>2008-10-19T17:48:53Z</time></trkpt>
<trkpt lat="43.23568300" lon="0.38435800"><ele>371.325928</ele><time>2008-10-19T17:49:21Z</time></trkpt>
<trkpt lat="43.23496600" lon="0.38518200"><ele>364.798279</ele><time>2008-10-19T17:49:46Z</time></trkpt>
<trkpt lat="43.23454300" lon="0.38571300"><ele>362.343658</ele><time>2008-10-19T17:50:01Z</time></trkpt>
<trkpt lat="43.23427600" lon="0.38585700"><ele>362.910309</ele><time>2008-10-19T17:50:09Z</time></trkpt>
<trkpt lat="43.23399700" lon="0.38580500"><ele>367.558807</ele><time>2008-10-19T17:50:16Z</time></trkpt>
<trkpt lat="43.23354000" lon="0.38535300"><ele>374.084717</ele><time>2008-10-19T17:50:31Z</time></trkpt>
<trkpt lat="43.23334500" lon="0.38501600"><ele>372.125305</ele><time>2008-10-19T17:50:40Z</time></trkpt>
<trkpt lat="43.23315000" lon="0.38462900"><ele>376.793579</ele><time>2008-10-19T17:50:49Z</time></trkpt>
<trkpt lat="43.23302500" lon="0.38451000"><ele>380.335083</ele><time>2008-10-19T17:50:53Z</time></trkpt>
<trkpt lat="43.23285700" lon="0.38463900"><ele>387.396667</ele><time>2008-10-19T17:50:58Z</time></trkpt>
<trkpt lat="43.23275800" lon="0.38455600"><ele>390.077087</ele><time>2008-10-19T17:51:01Z</time></trkpt>
<trkpt lat="43.23258200" lon="0.38437800"><ele>394.056519</ele><time>2008-10-19T17:51:07Z</time></trkpt>
<trkpt lat="43.23237200" lon="0.38422500"><ele>397.88501</ele><time>2008-10-19T17:51:13Z</time></trkpt>
<trkpt lat="43.23217800" lon="0.38408400"><ele>400.300873</ele><time>2008-10-19T17:51:19Z</time></trkpt>
<trkpt lat="43.23197200" lon="0.38389500"><ele>401.901459</ele><time>2008-10-19T17:51:26Z</time></trkpt>
<trkpt lat="43.23170500" lon="0.38387900"><ele>407.917877</ele><time>2008-10-19T17:51:33Z</time></trkpt>
<trkpt lat="43.23154400" lon="0.38371200"><ele>407.903656</ele><time>2008-10-19T17:51:38Z</time></trkpt>
<trkpt lat="43.23138400" lon="0.38343500"><ele>406.091675</ele><time>2008-10-19T17:51:45Z</time></trkpt>
<trkpt lat="43.23125500" lon="0.38330400"><ele>406.517212</ele><time>2008-10-19T17:51:49Z</time></trkpt>
<trkpt lat="43.23091500" lon="0.38316800"><ele>411.090088</ele><time>2008-10-19T17:51:59Z</time></trkpt>
<trkpt lat="43.23070100" lon="0.38307700"><ele>413.6297</ele><time>2008-10-19T17:52:05Z</time></trkpt>
<trkpt lat="43.23050300" lon="0.38288700"><ele>414.547028</ele><time>2008-10-19T17:52:11Z</time></trkpt>
<trkpt lat="43.23013700" lon="0.38290000"><ele>421.327423</ele><time>2008-10-19T17:52:21Z</time></trkpt>
<trkpt lat="43.22987000" lon="0.38294600"><ele>424.380585</ele><time>2008-10-19T17:52:28Z</time></trkpt>
<trkpt lat="43.22945000" lon="0.38278800"><ele>423.703125</ele><time>2008-10-19T17:52:40Z</time></trkpt>
<trkpt lat="43.22922500" lon="0.38261100"><ele>423.867126</ele><time>2008-10-19T17:52:47Z</time></trkpt>
<trkpt lat="43.22876000" lon="0.38257800"><ele>423.559937</ele><time>2008-10-19T17:52:59Z</time></trkpt>
<trkpt lat="43.22833600" lon="0.38246900"><ele>422.445313</ele><time>2008-10-19T17:53:11Z</time></trkpt>
<trkpt lat="43.22792100" lon="0.38249600"><ele>423.422791</ele><time>2008-10-19T17:53:22Z</time></trkpt>
<trkpt lat="43.22755100" lon="0.38271700"><ele>422.960938</ele><time>2008-10-19T17:53:33Z</time></trkpt>
<trkpt lat="43.22724900" lon="0.38293700"><ele>420.884949</ele><time>2008-10-19T17:53:42Z</time></trkpt>
<trkpt lat="43.22652100" lon="0.38288800"><ele>419.734497</ele><time>2008-10-19T17:54:01Z</time></trkpt>
<trkpt lat="43.22638300" lon="0.38354400"><ele>419.786133</ele><time>2008-10-19T17:54:15Z</time></trkpt>
<trkpt lat="43.22624600" lon="0.38427300"><ele>410.942352</ele><time>2008-10-19T17:54:29Z</time></trkpt>
<trkpt lat="43.22607400" lon="0.38500500"><ele>404.097595</ele><time>2008-10-19T17:54:44Z</time></trkpt>
<trkpt lat="43.22593300" lon="0.38573400"><ele>399.356415</ele><time>2008-10-19T17:54:59Z</time></trkpt>
<trkpt lat="43.22573500" lon="0.38658900"><ele>392.449402</ele><time>2008-10-19T17:55:16Z</time></trkpt>
<trkpt lat="43.22569300" lon="0.38677500"><ele>390.731323</ele><time>2008-10-19T17:55:20Z</time></trkpt>
<trkpt lat="43.22607400" lon="0.38670000"><ele>391.165497</ele><time>2008-10-19T17:55:30Z</time></trkpt>
<trkpt lat="43.22645200" lon="0.38652800"><ele>391.556458</ele><time>2008-10-19T17:55:41Z</time></trkpt>
<trkpt lat="43.22684900" lon="0.38637900"><ele>393.384003</ele><time>2008-10-19T17:55:52Z</time></trkpt>
<trkpt lat="43.22760000" lon="0.38639000"><ele>397.911835</ele><time>2008-10-19T17:56:12Z</time></trkpt>
<trkpt lat="43.22802000" lon="0.38629000"><ele>398.370056</ele><time>2008-10-19T17:56:24Z</time></trkpt>
<trkpt lat="43.22832100" lon="0.38605900"><ele>400.108398</ele><time>2008-10-19T17:56:33Z</time></trkpt>
<trkpt lat="43.22870600" lon="0.38615600"><ele>399.635925</ele><time>2008-10-19T17:56:43Z</time></trkpt>
<trkpt lat="43.22888600" lon="0.38655600"><ele>397.079865</ele><time>2008-10-19T17:56:52Z</time></trkpt>
<trkpt lat="43.22890100" lon="0.38726800"><ele>392.754395</ele><time>2008-10-19T17:57:06Z</time></trkpt>
<trkpt lat="43.22878600" lon="0.38785000"><ele>388.566406</ele><time>2008-10-19T17:57:18Z</time></trkpt>
<trkpt lat="43.22856500" lon="0.38875500"><ele>381.519989</ele><time>2008-10-19T17:57:37Z</time></trkpt>
<trkpt lat="43.22822200" lon="0.38994600"><ele>373.306671</ele><time>2008-10-19T17:58:01Z</time></trkpt>
<trkpt lat="43.22797400" lon="0.39036000"><ele>371.272003</ele><time>2008-10-19T17:58:12Z</time></trkpt>
<trkpt lat="43.22771500" lon="0.39097200"><ele>368.79068</ele><time>2008-10-19T17:58:26Z</time></trkpt>
<trkpt lat="43.22742500" lon="0.39151000"><ele>368.187988</ele><time>2008-10-19T17:58:39Z</time></trkpt>
<trkpt lat="43.22718400" lon="0.39205800"><ele>366.299683</ele><time>2008-10-19T17:58:51Z</time></trkpt>
<trkpt lat="43.22716100" lon="0.39293200"><ele>363.580872</ele><time>2008-10-19T17:59:08Z</time></trkpt>
<trkpt lat="43.22708900" lon="0.39352400"><ele>362.757599</ele><time>2008-10-19T17:59:20Z</time></trkpt>
<trkpt lat="43.22708500" lon="0.39464300"><ele>361.996002</ele><time>2008-10-19T17:59:42Z</time></trkpt>
<trkpt lat="43.22698600" lon="0.39526100"><ele>361.414032</ele><time>2008-10-19T17:59:54Z</time></trkpt>
<trkpt lat="43.22685200" lon="0.39593000"><ele>359.571411</ele><time>2008-10-19T18:00:07Z</time></trkpt>
<trkpt lat="43.22682600" lon="0.39637300"><ele>358.637421</ele><time>2008-10-19T18:00:16Z</time></trkpt>
<trkpt lat="43.22662000" lon="0.39666200"><ele>357.8992</ele><time>2008-10-19T18:00:24Z</time></trkpt>
<trkpt lat="43.22642900" lon="0.39706200"><ele>355.463501</ele><time>2008-10-19T18:00:33Z</time></trkpt>
<trkpt lat="43.22610900" lon="0.39740500"><ele>354.010345</ele><time>2008-10-19T18:00:44Z</time></trkpt>
<trkpt lat="43.22565100" lon="0.39820700"><ele>348.630829</ele><time>2008-10-19T18:01:04Z</time></trkpt>
<trkpt lat="43.22538400" lon="0.39835100"><ele>346.158936</ele><time>2008-10-19T18:01:12Z</time></trkpt>
<trkpt lat="43.22493400" lon="0.39853800"><ele>342.94986</ele><time>2008-10-19T18:01:24Z</time></trkpt>
<trkpt lat="43.22462100" lon="0.39888100"><ele>341.922485</ele><time>2008-10-19T18:01:35Z</time></trkpt>
<trkpt lat="43.22447600" lon="0.39962300"><ele>340.338806</ele><time>2008-10-19T18:01:50Z</time></trkpt>
<trkpt lat="43.22424300" lon="0.40052800"><ele>340.091614</ele><time>2008-10-19T18:02:09Z</time></trkpt>
<trkpt lat="43.22405600" lon="0.40128400"><ele>338.052246</ele><time>2008-10-19T18:02:24Z</time></trkpt>
<trkpt lat="43.22546000" lon="0.40164200"><ele>334.507202</ele><time>2008-10-19T18:03:02Z</time></trkpt>
<trkpt lat="43.22707000" lon="0.40215400"><ele>332.12674</ele><time>2008-10-19T18:03:46Z</time></trkpt>
<trkpt lat="43.22781400" lon="0.40220200"><ele>332.134735</ele><time>2008-10-19T18:04:06Z</time></trkpt>
<trkpt lat="43.23017500" lon="0.40332700"><ele>330.798828</ele><time>2008-10-19T18:05:13Z</time></trkpt>
<trkpt lat="43.23104100" lon="0.40371600"><ele>328.832397</ele><time>2008-10-19T18:05:37Z</time></trkpt>
<trkpt lat="43.23223100" lon="0.40477000"><ele>326.62619</ele><time>2008-10-19T18:06:15Z</time></trkpt>
<trkpt lat="43.23317000" lon="0.40563600"><ele>324.669586</ele><time>2008-10-19T18:06:45Z</time></trkpt>
<trkpt lat="43.23577900" lon="0.40649500"><ele>320.528961</ele><time>2008-10-19T18:07:57Z</time></trkpt>
<trkpt lat="43.23650700" lon="0.40680200"><ele>320.645996</ele><time>2008-10-19T18:08:18Z</time></trkpt>
<trkpt lat="43.23818600" lon="0.40809800"><ele>317.564789</ele><time>2008-10-19T18:09:09Z</time></trkpt>
<trkpt lat="43.23881900" lon="0.40851900"><ele>316.647339</ele><time>2008-10-19T18:09:28Z</time></trkpt>
<trkpt lat="43.23910500" lon="0.40867000"><ele>316.221893</ele><time>2008-10-19T18:09:36Z</time></trkpt>
<trkpt lat="43.23941800" lon="0.40864700"><ele>316.247192</ele><time>2008-10-19T18:09:44Z</time></trkpt>
<trkpt lat="43.24175300" lon="0.40994500"><ele>313.377838</ele><time>2008-10-19T18:10:52Z</time></trkpt>
<trkpt lat="43.24287400" lon="0.41054700"><ele>313.238403</ele><time>2008-10-19T18:11:24Z</time></trkpt>
<trkpt lat="43.24278600" lon="0.41141000"><ele>312.202301</ele><time>2008-10-19T18:11:41Z</time></trkpt>
<trkpt lat="43.24286300" lon="0.41177700"><ele>312.091766</ele><time>2008-10-19T18:11:48Z</time></trkpt>
<trkpt lat="43.24285100" lon="0.41218300"><ele>312.456268</ele><time>2008-10-19T18:11:56Z</time></trkpt>
<trkpt lat="43.24272500" lon="0.41260500"><ele>314.303833</ele><time>2008-10-19T18:12:05Z</time></trkpt>
<trkpt lat="43.24277900" lon="0.41330400"><ele>321.024292</ele><time>2008-10-19T18:12:19Z</time></trkpt>
<trkpt lat="43.24291600" lon="0.41365600"><ele>323.572845</ele><time>2008-10-19T18:12:26Z</time></trkpt>
<trkpt lat="43.24309200" lon="0.41394500"><ele>325.664764</ele><time>2008-10-19T18:12:34Z</time></trkpt>
<trkpt lat="43.24353000" lon="0.41429900"><ele>325.815399</ele><time>2008-10-19T18:12:47Z</time></trkpt>
<trkpt lat="43.24375500" lon="0.41440300"><ele>324.5672</ele><time>2008-10-19T18:12:54Z</time></trkpt>
<trkpt lat="43.24412500" lon="0.41495600"><ele>330.37912</ele><time>2008-10-19T18:13:08Z</time></trkpt>
<trkpt lat="43.24428600" lon="0.41551600"><ele>331.318024</ele><time>2008-10-19T18:13:20Z</time></trkpt>
<trkpt lat="43.24461000" lon="0.41591100"><ele>331.453583</ele><time>2008-10-19T18:13:32Z</time></trkpt>
<trkpt lat="43.24501800" lon="0.41651200"><ele>330.827972</ele><time>2008-10-19T18:13:48Z</time></trkpt>
<trkpt lat="43.24536100" lon="0.41721300"><ele>331.236786</ele><time>2008-10-19T18:14:04Z</time></trkpt>
<trkpt lat="43.24559000" lon="0.41780800"><ele>330.476074</ele><time>2008-10-19T18:14:17Z</time></trkpt>
<trkpt lat="43.24583800" lon="0.41786200"><ele>329.994385</ele><time>2008-10-19T18:14:24Z</time></trkpt>
<trkpt lat="43.24629200" lon="0.41785900"><ele>329.449585</ele><time>2008-10-19T18:14:36Z</time></trkpt>
<trkpt lat="43.24674200" lon="0.41794200"><ele>329.047943</ele><time>2008-10-19T18:14:48Z</time></trkpt>
<trkpt lat="43.24764300" lon="0.41801000"><ele>329.678589</ele><time>2008-10-19T18:15:12Z</time></trkpt>
<trkpt lat="43.24830600" lon="0.41811100"><ele>329.991241</ele><time>2008-10-19T18:15:30Z</time></trkpt>
<trkpt lat="43.24884800" lon="0.41835100"><ele>329.965698</ele><time>2008-10-19T18:15:45Z</time></trkpt>
<trkpt lat="43.25030500" lon="0.41959300"><ele>325.342804</ele><time>2008-10-19T18:16:31Z</time></trkpt>
<trkpt lat="43.25154100" lon="0.42068400"><ele>324.179199</ele><time>2008-10-19T18:17:10Z</time></trkpt>
<trkpt lat="43.25299100" lon="0.42163100"><ele>323.410797</ele><time>2008-10-19T18:17:53Z</time></trkpt>
<trkpt lat="43.25388300" lon="0.42221600"><ele>322.34079</ele><time>2008-10-19T18:18:20Z</time></trkpt>
<trkpt lat="43.25413100" lon="0.42218300"><ele>322.380402</ele><time>2008-10-19T18:18:26Z</time></trkpt>
<trkpt lat="43.25426500" lon="0.42185900"><ele>322.887207</ele><time>2008-10-19T18:18:34Z</time></trkpt>
<trkpt lat="43.25439100" lon="0.42164600"><ele>323.294006</ele><time>2008-10-19T18:18:39Z</time></trkpt>
<trkpt lat="43.25465800" lon="0.42173500"><ele>323.507599</ele><time>2008-10-19T18:18:46Z</time></trkpt>
<trkpt lat="43.25514200" lon="0.42201400"><ele>323.512177</ele><time>2008-10-19T18:19:00Z</time></trkpt>
<trkpt lat="43.25612600" lon="0.42049300"><ele>325.240387</ele><time>2008-10-19T18:19:40Z</time></trkpt>
<trkpt lat="43.25621800" lon="0.42035500"><ele>324.964386</ele><time>2008-10-19T18:19:43Z</time></trkpt>
<trkpt lat="43.25645800" lon="0.42020000"><ele>324.490387</ele><time>2008-10-19T18:19:51Z</time></trkpt>
<trkpt lat="43.25644700" lon="0.42008900"><ele>324.370392</ele><time>2008-10-19T18:19:53Z</time></trkpt>
<trkpt lat="43.25622900" lon="0.41990000"><ele>322.560333</ele><time>2008-10-19T18:20:00Z</time></trkpt>
<trkpt lat="43.25618700" lon="0.41974100"><ele>319.56488</ele><time>2008-10-19T18:20:03Z</time></trkpt>
<trkpt lat="43.25637100" lon="0.41966100"><ele>317.34726</ele><time>2008-10-19T18:20:08Z</time></trkpt>
<trkpt lat="43.25657300" lon="0.41958100"><ele>314.841766</ele><time>2008-10-19T18:20:14Z</time></trkpt>
<trkpt lat="43.25661500" lon="0.41945700"><ele>311.883606</ele><time>2008-10-19T18:20:16Z</time></trkpt>
<trkpt lat="43.25635100" lon="0.41924400"><ele>308.860229</ele><time>2008-10-19T18:20:24Z</time></trkpt>
<trkpt lat="43.25631000" lon="0.41907300"><ele>306.07489</ele><time>2008-10-19T18:20:28Z</time></trkpt>
<trkpt lat="43.25642800" lon="0.41888500"><ele>302.371979</ele><time>2008-10-19T18:20:33Z</time></trkpt>
<trkpt lat="43.25657300" lon="0.41873300"><ele>299.25412</ele><time>2008-10-19T18:20:38Z</time></trkpt>
<trkpt lat="43.25735100" lon="0.41879200"><ele>297.427643</ele><time>2008-10-19T18:20:59Z</time></trkpt>
<trkpt lat="43.25793800" lon="0.41881000"><ele>296.69809</ele><time>2008-10-19T18:21:14Z</time></trkpt>
<trkpt lat="43.25845700" lon="0.41878000"><ele>295.816467</ele><time>2008-10-19T18:21:28Z</time></trkpt>
<trkpt lat="43.25927700" lon="0.41903600"><ele>297.943909</ele><time>2008-10-19T18:21:51Z</time></trkpt>
<trkpt lat="43.25982700" lon="0.41921400"><ele>297.49057</ele><time>2008-10-19T18:22:06Z</time></trkpt>
<trkpt lat="43.26016600" lon="0.41936200"><ele>296.844727</ele><time>2008-10-19T18:22:15Z</time></trkpt>
<trkpt lat="43.26124200" lon="0.41927700"><ele>287.948547</ele><time>2008-10-19T18:22:44Z</time></trkpt>
<trkpt lat="43.26215700" lon="0.41922200"><ele>285.84906</ele><time>2008-10-19T18:23:08Z</time></trkpt>
<trkpt lat="43.26284000" lon="0.41937200"><ele>285.808258</ele><time>2008-10-19T18:23:27Z</time></trkpt>
<trkpt lat="43.26332100" lon="0.41925700"><ele>283.68161</ele><time>2008-10-19T18:23:40Z</time></trkpt>
<trkpt lat="43.26369500" lon="0.41888800"><ele>283.667419</ele><time>2008-10-19T18:23:52Z</time></trkpt>
<trkpt lat="43.26460600" lon="0.41846400"><ele>282.350403</ele><time>2008-10-19T18:24:18Z</time></trkpt>
<trkpt lat="43.26508700" lon="0.41828800"><ele>281.191772</ele><time>2008-10-19T18:24:31Z</time></trkpt>
<trkpt lat="43.26567500" lon="0.41801000"><ele>281.677155</ele><time>2008-10-19T18:24:48Z</time></trkpt>
<trkpt lat="43.26562500" lon="0.41870100"><ele>284.264801</ele><time>2008-10-19T18:25:01Z</time></trkpt>
<trkpt lat="43.26564000" lon="0.41906900"><ele>286.0672</ele><time>2008-10-19T18:25:09Z</time></trkpt>
<trkpt lat="43.26566300" lon="0.41953600"><ele>292.09079</ele><time>2008-10-19T18:25:18Z</time></trkpt>
<trkpt lat="43.26562900" lon="0.41972100"><ele>294.818207</ele><time>2008-10-19T18:25:21Z</time></trkpt>
<trkpt lat="43.26577800" lon="0.41999900"><ele>298.985443</ele><time>2008-10-19T18:25:28Z</time></trkpt>
<trkpt lat="43.26586200" lon="0.42026700"><ele>305.559296</ele><time>2008-10-19T18:25:34Z</time></trkpt>
<trkpt lat="43.26571700" lon="0.42037000"><ele>307.508118</ele><time>2008-10-19T18:25:38Z</time></trkpt>
<trkpt lat="43.26554900" lon="0.42054800"><ele>310.805756</ele><time>2008-10-19T18:25:44Z</time></trkpt>
<trkpt lat="43.26543000" lon="0.42060100"><ele>311.32962</ele><time>2008-10-19T18:25:47Z</time></trkpt>
<trkpt lat="43.26537700" lon="0.42099600"><ele>317.917358</ele><time>2008-10-19T18:25:55Z</time></trkpt>
<trkpt lat="43.26546500" lon="0.42117800"><ele>320.753662</ele><time>2008-10-19T18:25:59Z</time></trkpt>
<trkpt lat="43.26561400" lon="0.42129600"><ele>322.739166</ele><time>2008-10-19T18:26:04Z</time></trkpt>
<trkpt lat="43.26586900" lon="0.42134900"><ele>323.940216</ele><time>2008-10-19T18:26:11Z</time></trkpt>
<trkpt lat="43.26613200" lon="0.42125400"><ele>323.034973</ele><time>2008-10-19T18:26:18Z</time></trkpt>
<trkpt lat="43.26639200" lon="0.42119600"><ele>322.568481</ele><time>2008-10-19T18:26:25Z</time></trkpt>
<trkpt lat="43.26694500" lon="0.42154700"><ele>325.71048</ele><time>2008-10-19T18:26:41Z</time></trkpt>
<trkpt lat="43.26753600" lon="0.42188400"><ele>328.144318</ele><time>2008-10-19T18:26:58Z</time></trkpt>
<trkpt lat="43.26846700" lon="0.42239400"><ele>328.633179</ele><time>2008-10-19T18:27:25Z</time></trkpt>
<trkpt lat="43.26968400" lon="0.42298000"><ele>327.004761</ele><time>2008-10-19T18:28:00Z</time></trkpt>
<trkpt lat="43.27106900" lon="0.42369700"><ele>328.96582</ele><time>2008-10-19T18:28:39Z</time></trkpt>
<trkpt lat="43.27325800" lon="0.42476800"><ele>324.862335</ele><time>2008-10-19T18:29:41Z</time></trkpt>
<trkpt lat="43.27476900" lon="0.42550500"><ele>322.254852</ele><time>2008-10-19T18:30:24Z</time></trkpt>
<trkpt lat="43.27640900" lon="0.42632400"><ele>324.852173</ele><time>2008-10-19T18:31:11Z</time></trkpt>
<trkpt lat="43.27756500" lon="0.42688800"><ele>327.312561</ele><time>2008-10-19T18:31:43Z</time></trkpt>
<trkpt lat="43.27840400" lon="0.42729100"><ele>324.667328</ele><time>2008-10-19T18:32:07Z</time></trkpt>
<trkpt lat="43.27893800" lon="0.42749400"><ele>324.000702</ele><time>2008-10-19T18:32:22Z</time></trkpt>
<trkpt lat="43.27943400" lon="0.42724400"><ele>323.520844</ele><time>2008-10-19T18:32:36Z</time></trkpt>
<trkpt lat="43.28003300" lon="0.42716300"><ele>322.46994</ele><time>2008-10-19T18:32:52Z</time></trkpt>
<trkpt lat="43.28056700" lon="0.42726800"><ele>321.89151</ele><time>2008-10-19T18:33:07Z</time></trkpt>
<trkpt lat="43.28125000" lon="0.42762700"><ele>323.414398</ele><time>2008-10-19T18:33:26Z</time></trkpt>
<trkpt lat="43.28168100" lon="0.42766200"><ele>322.202179</ele><time>2008-10-19T18:33:38Z</time></trkpt>
<trkpt lat="43.28208900" lon="0.42784500"><ele>319.66925</ele><time>2008-10-19T18:33:49Z</time></trkpt>
<trkpt lat="43.28263900" lon="0.42814700"><ele>319.279327</ele><time>2008-10-19T18:34:05Z</time></trkpt>
<trkpt lat="43.28327900" lon="0.42840800"><ele>322.364227</ele><time>2008-10-19T18:34:23Z</time></trkpt>
<trkpt lat="43.28372200" lon="0.42865200"><ele>321.842346</ele><time>2008-10-19T18:34:36Z</time></trkpt>
<trkpt lat="43.28425200" lon="0.42883100"><ele>320.246429</ele><time>2008-10-19T18:34:50Z</time></trkpt>
<trkpt lat="43.28466800" lon="0.42911200"><ele>319.94989</ele><time>2008-10-19T18:35:03Z</time></trkpt>
<trkpt lat="43.28559500" lon="0.42978300"><ele>316.584442</ele><time>2008-10-19T18:35:31Z</time></trkpt>
<trkpt lat="43.28586200" lon="0.43018000"><ele>317.572021</ele><time>2008-10-19T18:35:41Z</time></trkpt>
<trkpt lat="43.28686900" lon="0.43081100"><ele>316.458679</ele><time>2008-10-19T18:36:11Z</time></trkpt>
<trkpt lat="43.28747200" lon="0.43106200"><ele>315.865906</ele><time>2008-10-19T18:36:27Z</time></trkpt>
<trkpt lat="43.28812000" lon="0.43120000"><ele>313.679993</ele><time>2008-10-19T18:36:45Z</time></trkpt>
<trkpt lat="43.28834200" lon="0.43134100"><ele>314.034149</ele><time>2008-10-19T18:36:51Z</time></trkpt>
<trkpt lat="43.28891800" lon="0.43149300"><ele>312.52475</ele><time>2008-10-19T18:37:07Z</time></trkpt>
<trkpt lat="43.28933300" lon="0.43164000"><ele>313.55838</ele><time>2008-10-19T18:37:19Z</time></trkpt>
<trkpt lat="43.28966900" lon="0.43162900"><ele>313.39444</ele><time>2008-10-19T18:37:28Z</time></trkpt>
<trkpt lat="43.29005800" lon="0.43177600"><ele>314.66626</ele><time>2008-10-19T18:37:38Z</time></trkpt>
<trkpt lat="43.29103500" lon="0.43171900"><ele>312.971191</ele><time>2008-10-19T18:38:04Z</time></trkpt>
<trkpt lat="43.29166800" lon="0.43179600"><ele>315.084808</ele><time>2008-10-19T18:38:21Z</time></trkpt>
<trkpt lat="43.29219800" lon="0.43185200"><ele>314.919189</ele><time>2008-10-19T18:38:36Z</time></trkpt>
<trkpt lat="43.29269800" lon="0.43190900"><ele>315.709625</ele><time>2008-10-19T18:38:49Z</time></trkpt>
<trkpt lat="43.29315900" lon="0.43223900"><ele>318.798309</ele><time>2008-10-19T18:39:03Z</time></trkpt>
<trkpt lat="43.29354500" lon="0.43243500"><ele>319.726379</ele><time>2008-10-19T18:39:14Z</time></trkpt>
<trkpt lat="43.29387700" lon="0.43265800"><ele>319.744507</ele><time>2008-10-19T18:39:24Z</time></trkpt>
<trkpt lat="43.29462400" lon="0.43269500"><ele>319.182068</ele><time>2008-10-19T18:39:44Z</time></trkpt>
<trkpt lat="43.29525000" lon="0.43312900"><ele>319.07016</ele><time>2008-10-19T18:40:03Z</time></trkpt>
<trkpt lat="43.29550200" lon="0.43329300"><ele>318.930969</ele><time>2008-10-19T18:40:10Z</time></trkpt>
<trkpt lat="43.29570000" lon="0.43384000"><ele>318.188171</ele><time>2008-10-19T18:40:22Z</time></trkpt>
<trkpt lat="43.29584100" lon="0.43435200"><ele>317.289886</ele><time>2008-10-19T18:40:32Z</time></trkpt>
<trkpt lat="43.29630300" lon="0.43446100"><ele>314.753174</ele><time>2008-10-19T18:40:45Z</time></trkpt>
<trkpt lat="43.29659300" lon="0.43431500"><ele>312.970001</ele><time>2008-10-19T18:40:53Z</time></trkpt>
<trkpt lat="43.29671100" lon="0.43384400"><ele>309.3078</ele><time>2008-10-19T18:41:03Z</time></trkpt>
<trkpt lat="43.29661600" lon="0.43349000"><ele>307.789032</ele><time>2008-10-19T18:41:10Z</time></trkpt>
<trkpt lat="43.29655100" lon="0.43314700"><ele>304.945007</ele><time>2008-10-19T18:41:17Z</time></trkpt>
<trkpt lat="43.29644800" lon="0.43283100"><ele>302.261444</ele><time>2008-10-19T18:41:24Z</time></trkpt>
<trkpt lat="43.29628800" lon="0.43260200"><ele>302.436676</ele><time>2008-10-19T18:41:30Z</time></trkpt>
<trkpt lat="43.29621100" lon="0.43222400"><ele>297.362091</ele><time>2008-10-19T18:41:38Z</time></trkpt>
<trkpt lat="43.29589100" lon="0.43179100"><ele>295.34967</ele><time>2008-10-19T18:41:50Z</time></trkpt>
<trkpt lat="43.29584500" lon="0.43143600"><ele>288.549316</ele><time>2008-10-19T18:41:57Z</time></trkpt>
<trkpt lat="43.29579500" lon="0.43077300"><ele>274.621063</ele><time>2008-10-19T18:42:10Z</time></trkpt>
<trkpt lat="43.29576100" lon="0.43041700"><ele>270.981049</ele><time>2008-10-19T18:42:17Z</time></trkpt>
<trkpt lat="43.29579200" lon="0.42999800"><ele>266.23877</ele><time>2008-10-19T18:42:25Z</time></trkpt>
<trkpt lat="43.29568900" lon="0.42989000"><ele>266.406586</ele><time>2008-10-19T18:42:28Z</time></trkpt>
<trkpt lat="43.29552500" lon="0.43022800"><ele>270.413635</ele><time>2008-10-19T18:42:36Z</time></trkpt>
<trkpt lat="43.29543700" lon="0.43045300"><ele>273.528931</ele><time>2008-10-19T18:42:41Z</time></trkpt>
<trkpt lat="43.29519300" lon="0.43064500"><ele>277.40274</ele><time>2008-10-19T18:42:49Z</time></trkpt>
<trkpt lat="43.29482300" lon="0.43094100"><ele>286.779663</ele><time>2008-10-19T18:43:00Z</time></trkpt>
<trkpt lat="43.29707000" lon="0.42110700"><ele>283.482086</ele><time>2008-10-19T18:46:21Z</time></trkpt>
<trkpt lat="43.29692800" lon="0.42108800"><ele>283.138214</ele><time>2008-10-19T18:46:24Z</time></trkpt>
<trkpt lat="43.29663800" lon="0.42133100"><ele>279.563568</ele><time>2008-10-19T18:46:33Z</time></trkpt>
<trkpt lat="43.29636800" lon="0.42125400"><ele>279.914032</ele><time>2008-10-19T18:46:41Z</time></trkpt>
<trkpt lat="43.29612400" lon="0.42099100"><ele>282.927582</ele><time>2008-10-19T18:46:49Z</time></trkpt>
<trkpt lat="43.29584500" lon="0.42081600"><ele>285.020813</ele><time>2008-10-19T18:46:57Z</time></trkpt>
<trkpt lat="43.29533800" lon="0.42075900"><ele>278.592651</ele><time>2008-10-19T18:47:11Z</time></trkpt>
<trkpt lat="43.29508200" lon="0.42069400"><ele>276.156982</ele><time>2008-10-19T18:47:18Z</time></trkpt>
<trkpt lat="43.29470100" lon="0.42051000"><ele>277.487152</ele><time>2008-10-19T18:47:29Z</time></trkpt>
<trkpt lat="43.29430400" lon="0.42017800"><ele>280.596008</ele><time>2008-10-19T18:47:41Z</time></trkpt>
<trkpt lat="43.29401400" lon="0.41994200"><ele>280.484558</ele><time>2008-10-19T18:47:50Z</time></trkpt>
<trkpt lat="43.29368600" lon="0.41970700"><ele>278.174408</ele><time>2008-10-19T18:48:00Z</time></trkpt>
<trkpt lat="43.29348800" lon="0.41948000"><ele>277.835327</ele><time>2008-10-19T18:48:07Z</time></trkpt>
<trkpt lat="43.29329300" lon="0.41925200"><ele>278.124939</ele><time>2008-10-19T18:48:14Z</time></trkpt>
<trkpt lat="43.29307600" lon="0.41891500"><ele>277.355957</ele><time>2008-10-19T18:48:22Z</time></trkpt>
<trkpt lat="43.29290000" lon="0.41824400"><ele>276.411469</ele><time>2008-10-19T18:48:36Z</time></trkpt>
<trkpt lat="43.29261400" lon="0.41794600"><ele>274.021179</ele><time>2008-10-19T18:48:46Z</time></trkpt>
<trkpt lat="43.29239300" lon="0.41772000"><ele>273</ele><time>2008-10-19T18:48:53Z</time></trkpt>
<trkpt lat="43.29220600" lon="0.41777500"><ele>273</ele><time>2008-10-19T18:48:58Z</time></trkpt>
<trkpt lat="43.29204200" lon="0.41795300"><ele>273</ele><time>2008-10-19T18:49:04Z</time></trkpt>
<trkpt lat="43.29166800" lon="0.41824800"><ele>273</ele><time>2008-10-19T18:49:15Z</time></trkpt>
<trkpt lat="43.29129000" lon="0.41837200"><ele>273</ele><time>2008-10-19T18:49:26Z</time></trkpt>
<trkpt lat="43.29108400" lon="0.41808300"><ele>274.680328</ele><time>2008-10-19T18:49:34Z</time></trkpt>
<trkpt lat="43.29104600" lon="0.41796200"><ele>275.65506</ele><time>2008-10-19T18:49:36Z</time></trkpt>
<trkpt lat="43.29094300" lon="0.41744800"><ele>280.108154</ele><time>2008-10-19T18:49:47Z</time></trkpt>
<trkpt lat="43.29091300" lon="0.41696900"><ele>281.603394</ele><time>2008-10-19T18:49:56Z</time></trkpt>
<trkpt lat="43.29097400" lon="0.41670900"><ele>282.521484</ele><time>2008-10-19T18:50:01Z</time></trkpt>
<trkpt lat="43.29110700" lon="0.41628600"><ele>283.470367</ele><time>2008-10-19T18:50:10Z</time></trkpt>
<trkpt lat="43.29113400" lon="0.41536200"><ele>283.879059</ele><time>2008-10-19T18:50:28Z</time></trkpt>
<trkpt lat="43.29140500" lon="0.41069000"><ele>290.598022</ele><time>2008-10-19T18:51:59Z</time></trkpt>
<trkpt lat="43.29150800" lon="0.40751200"><ele>297.965729</ele><time>2008-10-19T18:53:01Z</time></trkpt>
<trkpt lat="43.29155000" lon="0.40655100"><ele>300.516327</ele><time>2008-10-19T18:53:20Z</time></trkpt>
<trkpt lat="43.29092800" lon="0.40628900"><ele>301.009369</ele><time>2008-10-19T18:53:37Z</time></trkpt>
<trkpt lat="43.29036300" lon="0.40630700"><ele>302.235596</ele><time>2008-10-19T18:53:52Z</time></trkpt>
<trkpt lat="43.28991700" lon="0.40650700"><ele>302.693481</ele><time>2008-10-19T18:54:05Z</time></trkpt>
<trkpt lat="43.28954700" lon="0.40648300"><ele>303.324615</ele><time>2008-10-19T18:54:15Z</time></trkpt>
<trkpt lat="43.28916200" lon="0.40615100"><ele>305.471741</ele><time>2008-10-19T18:54:27Z</time></trkpt>
<trkpt lat="43.28888700" lon="0.40581600"><ele>306.706146</ele><time>2008-10-19T18:54:37Z</time></trkpt>
<trkpt lat="43.28872700" lon="0.40537800"><ele>307.883636</ele><time>2008-10-19T18:54:46Z</time></trkpt>
<trkpt lat="43.28865100" lon="0.40487600"><ele>309.924866</ele><time>2008-10-19T18:54:56Z</time></trkpt>
<trkpt lat="43.28846400" lon="0.40407100"><ele>314.813202</ele><time>2008-10-19T18:55:13Z</time></trkpt>
<trkpt lat="43.28847500" lon="0.40328300"><ele>317.110535</ele><time>2008-10-19T18:55:28Z</time></trkpt>
<trkpt lat="43.28844800" lon="0.40243500"><ele>319.00766</ele><time>2008-10-19T18:55:45Z</time></trkpt>
<trkpt lat="43.28838700" lon="0.40188300"><ele>320.368713</ele><time>2008-10-19T18:55:55Z</time></trkpt>
<trkpt lat="43.28826100" lon="0.40126000"><ele>321.488007</ele><time>2008-10-19T18:56:08Z</time></trkpt>
<trkpt lat="43.28802100" lon="0.40045600"><ele>322.735901</ele><time>2008-10-19T18:56:25Z</time></trkpt>
<trkpt lat="43.28775400" lon="0.39982500"><ele>323.806793</ele><time>2008-10-19T18:56:39Z</time></trkpt>
<trkpt lat="43.28734200" lon="0.39911300"><ele>326.253998</ele><time>2008-10-19T18:56:57Z</time></trkpt>
<trkpt lat="43.28681200" lon="0.39820800"><ele>328.002228</ele><time>2008-10-19T18:57:19Z</time></trkpt>
<trkpt lat="43.28657200" lon="0.39777300"><ele>328.635193</ele><time>2008-10-19T18:57:30Z</time></trkpt>
<trkpt lat="43.28648000" lon="0.39705000"><ele>329.540009</ele><time>2008-10-19T18:57:44Z</time></trkpt>
<trkpt lat="43.28639200" lon="0.39645000"><ele>331.128601</ele><time>2008-10-19T18:57:56Z</time></trkpt>
<trkpt lat="43.28558700" lon="0.39585000"><ele>332.650299</ele><time>2008-10-19T18:58:21Z</time></trkpt>
<trkpt lat="43.28566000" lon="0.39533100"><ele>335.203186</ele><time>2008-10-19T18:58:31Z</time></trkpt>
<trkpt lat="43.28567900" lon="0.39433400"><ele>340.011597</ele><time>2008-10-19T18:58:50Z</time></trkpt>
<trkpt lat="43.28546100" lon="0.39357800"><ele>342.988007</ele><time>2008-10-19T18:59:06Z</time></trkpt>
<trkpt lat="43.28514900" lon="0.39277700"><ele>347.099274</ele><time>2008-10-19T18:59:24Z</time></trkpt>
<trkpt lat="43.28497300" lon="0.39211800"><ele>350.375214</ele><time>2008-10-19T18:59:37Z</time></trkpt>
<trkpt lat="43.28504200" lon="0.39099600"><ele>356.637024</ele><time>2008-10-19T18:59:59Z</time></trkpt>
<trkpt lat="43.28524800" lon="0.38964900"><ele>361.062042</ele><time>2008-10-19T19:00:26Z</time></trkpt>
<trkpt lat="43.28540400" lon="0.38840000"><ele>365.098053</ele><time>2008-10-19T19:00:51Z</time></trkpt>
<trkpt lat="43.28558700" lon="0.38796400"><ele>368.429535</ele><time>2008-10-19T19:01:01Z</time></trkpt>
<trkpt lat="43.28570900" lon="0.38746700"><ele>372.871155</ele><time>2008-10-19T19:01:11Z</time></trkpt>
<trkpt lat="43.28578600" lon="0.38725600"><ele>375.179077</ele><time>2008-10-19T19:01:15Z</time></trkpt>
<trkpt lat="43.28563300" lon="0.38706400"><ele>374.472504</ele><time>2008-10-19T19:01:21Z</time></trkpt>
<trkpt lat="43.28563300" lon="0.38669500"><ele>376.703491</ele><time>2008-10-19T19:01:28Z</time></trkpt>
<trkpt lat="43.28548000" lon="0.38606000"><ele>376.473999</ele><time>2008-10-19T19:01:41Z</time></trkpt>
<trkpt lat="43.28532800" lon="0.38547500"><ele>375.066101</ele><time>2008-10-19T19:01:53Z</time></trkpt>
<trkpt lat="43.28522500" lon="0.38427300"><ele>375.133698</ele><time>2008-10-19T19:02:17Z</time></trkpt>
<trkpt lat="43.28519100" lon="0.38368300"><ele>375.029846</ele><time>2008-10-19T19:02:28Z</time></trkpt>
<trkpt lat="43.28497300" lon="0.38248500"><ele>373.596802</ele><time>2008-10-19T19:02:52Z</time></trkpt>
<trkpt lat="43.28491600" lon="0.38203200"><ele>373.25119</ele><time>2008-10-19T19:03:01Z</time></trkpt>
<trkpt lat="43.28494300" lon="0.38085000"><ele>373.197845</ele><time>2008-10-19T19:03:24Z</time></trkpt>
<trkpt lat="43.28488200" lon="0.38007600"><ele>369.960449</ele><time>2008-10-19T19:03:39Z</time></trkpt>
<trkpt lat="43.28448500" lon="0.37802300"><ele>361.256165</ele><time>2008-10-19T19:04:21Z</time></trkpt>
<trkpt lat="43.28439300" lon="0.37784200"><ele>362.498657</ele><time>2008-10-19T19:04:25Z</time></trkpt>
<trkpt lat="43.28313800" lon="0.37777400"><ele>363.080566</ele><time>2008-10-19T19:04:58Z</time></trkpt>
<trkpt lat="43.28272200" lon="0.37797300"><ele>361.842712</ele><time>2008-10-19T19:05:10Z</time></trkpt>
<trkpt lat="43.28218100" lon="0.37823700"><ele>363.061249</ele><time>2008-10-19T19:05:26Z</time></trkpt>
<trkpt lat="43.28157400" lon="0.37841800"><ele>362.730713</ele><time>2008-10-19T19:05:42Z</time></trkpt>
<trkpt lat="43.28129600" lon="0.37819300"><ele>361.133636</ele><time>2008-10-19T19:05:51Z</time></trkpt>
<trkpt lat="43.28073100" lon="0.37763500"><ele>358.897034</ele><time>2008-10-19T19:06:09Z</time></trkpt>
<trkpt lat="43.28033100" lon="0.37730400"><ele>357.034363</ele><time>2008-10-19T19:06:22Z</time></trkpt>
<trkpt lat="43.27988400" lon="0.37741700"><ele>360.363586</ele><time>2008-10-19T19:06:34Z</time></trkpt>
<trkpt lat="43.27948000" lon="0.37753000"><ele>362.777527</ele><time>2008-10-19T19:06:45Z</time></trkpt>
<trkpt lat="43.27878600" lon="0.37751600"><ele>365.804688</ele><time>2008-10-19T19:07:04Z</time></trkpt>
<trkpt lat="43.27826700" lon="0.37731200"><ele>368.915588</ele><time>2008-10-19T19:07:18Z</time></trkpt>
<trkpt lat="43.27795400" lon="0.37707700"><ele>370.888397</ele><time>2008-10-19T19:07:28Z</time></trkpt>
<trkpt lat="43.27751900" lon="0.37653800"><ele>373.615753</ele><time>2008-10-19T19:07:43Z</time></trkpt>
<trkpt lat="43.27727100" lon="0.37673200"><ele>374.486755</ele><time>2008-10-19T19:07:51Z</time></trkpt>
<trkpt lat="43.27701200" lon="0.37720800"><ele>376.265656</ele><time>2008-10-19T19:08:02Z</time></trkpt>
<trkpt lat="43.27655000" lon="0.37782600"><ele>382.205719</ele><time>2008-10-19T19:08:20Z</time></trkpt>
<trkpt lat="43.27638600" lon="0.37805300"><ele>382.423584</ele><time>2008-10-19T19:08:26Z</time></trkpt>
<trkpt lat="43.27635200" lon="0.37855900"><ele>385.723389</ele><time>2008-10-19T19:08:36Z</time></trkpt>
<trkpt lat="43.27608900" lon="0.37883800"><ele>388.711823</ele><time>2008-10-19T19:08:45Z</time></trkpt>
<trkpt lat="43.27569600" lon="0.37927000"><ele>392.846466</ele><time>2008-10-19T19:08:58Z</time></trkpt>
<trkpt lat="43.27531100" lon="0.37945600"><ele>389.768036</ele><time>2008-10-19T19:09:09Z</time></trkpt>
<trkpt lat="43.27499000" lon="0.37947900"><ele>386.993896</ele><time>2008-10-19T19:09:18Z</time></trkpt>
<trkpt lat="43.27463900" lon="0.37988400"><ele>384.502686</ele><time>2008-10-19T19:09:30Z</time></trkpt>
<trkpt lat="43.27440300" lon="0.38038400"><ele>380.385895</ele><time>2008-10-19T19:09:41Z</time></trkpt>
<trkpt lat="43.27405200" lon="0.38077800"><ele>377.162659</ele><time>2008-10-19T19:09:53Z</time></trkpt>
<trkpt lat="43.27328100" lon="0.38060700"><ele>376.68808</ele><time>2008-10-19T19:10:14Z</time></trkpt>
<trkpt lat="43.27291900" lon="0.38041100"><ele>376.758698</ele><time>2008-10-19T19:10:25Z</time></trkpt>
<trkpt lat="43.27231600" lon="0.37996300"><ele>377.468811</ele><time>2008-10-19T19:10:43Z</time></trkpt>
<trkpt lat="43.27208300" lon="0.37949200"><ele>376.717865</ele><time>2008-10-19T19:10:54Z</time></trkpt>
<trkpt lat="43.27198400" lon="0.37891700"><ele>377.152618</ele><time>2008-10-19T19:11:06Z</time></trkpt>
<trkpt lat="43.27193500" lon="0.37835300"><ele>376.693207</ele><time>2008-10-19T19:11:17Z</time></trkpt>
<trkpt lat="43.27175500" lon="0.37774400"><ele>376.519196</ele><time>2008-10-19T19:11:29Z</time></trkpt>
<trkpt lat="43.27153800" lon="0.37740700"><ele>377.291992</ele><time>2008-10-19T19:11:38Z</time></trkpt>
<trkpt lat="43.27148100" lon="0.37706500"><ele>378.865204</ele><time>2008-10-19T19:11:45Z</time></trkpt>
<trkpt lat="43.27148400" lon="0.37652300"><ele>381.298004</ele><time>2008-10-19T19:11:56Z</time></trkpt>
<trkpt lat="43.27136600" lon="0.37572800"><ele>383.256042</ele><time>2008-10-19T19:12:11Z</time></trkpt>
<trkpt lat="43.27125500" lon="0.37516500"><ele>382.250061</ele><time>2008-10-19T19:12:23Z</time></trkpt>
<trkpt lat="43.27117200" lon="0.37491000"><ele>382.936005</ele><time>2008-10-19T19:12:28Z</time></trkpt>
<trkpt lat="43.27092700" lon="0.37488200"><ele>385.876007</ele><time>2008-10-19T19:12:35Z</time></trkpt>
<trkpt lat="43.27011500" lon="0.37520500"><ele>392.24826</ele><time>2008-10-19T19:12:57Z</time></trkpt>
<trkpt lat="43.26891700" lon="0.37456900"><ele>395.675873</ele><time>2008-10-19T19:13:32Z</time></trkpt>
<trkpt lat="43.26844000" lon="0.37427800"><ele>399.123718</ele><time>2008-10-19T19:13:46Z</time></trkpt>
<trkpt lat="43.26797900" lon="0.37387500"><ele>397.999634</ele><time>2008-10-19T19:14:00Z</time></trkpt>
<trkpt lat="43.26749800" lon="0.37362100"><ele>397.446198</ele><time>2008-10-19T19:14:14Z</time></trkpt>
<trkpt lat="43.26692200" lon="0.37361600"><ele>395.745117</ele><time>2008-10-19T19:14:29Z</time></trkpt>
<trkpt lat="43.26644100" lon="0.37341100"><ele>394.864868</ele><time>2008-10-19T19:14:43Z</time></trkpt>
<trkpt lat="43.26589600" lon="0.37327000"><ele>396.424683</ele><time>2008-10-19T19:14:58Z</time></trkpt>
<trkpt lat="43.26545000" lon="0.37281800"><ele>396.977661</ele><time>2008-10-19T19:15:12Z</time></trkpt>
<trkpt lat="43.26496500" lon="0.37220700"><ele>400.950958</ele><time>2008-10-19T19:15:30Z</time></trkpt>
<trkpt lat="43.26474000" lon="0.37161200"><ele>400.825195</ele><time>2008-10-19T19:15:43Z</time></trkpt>
<trkpt lat="43.26460600" lon="0.37122300"><ele>403.275909</ele><time>2008-10-19T19:15:51Z</time></trkpt>
<trkpt lat="43.26419800" lon="0.37094200"><ele>405.687805</ele><time>2008-10-19T19:16:04Z</time></trkpt>
<trkpt lat="43.26380500" lon="0.37063600"><ele>409.083252</ele><time>2008-10-19T19:16:16Z</time></trkpt>
<trkpt lat="43.26349600" lon="0.37014200"><ele>412.251862</ele><time>2008-10-19T19:16:28Z</time></trkpt>
<trkpt lat="43.26339300" lon="0.36959200"><ele>411.84552</ele><time>2008-10-19T19:16:39Z</time></trkpt>
<trkpt lat="43.26322200" lon="0.36888500"><ele>411.587341</ele><time>2008-10-19T19:16:54Z</time></trkpt>
<trkpt lat="43.26314900" lon="0.36838300"><ele>410.430359</ele><time>2008-10-19T19:17:04Z</time></trkpt>
<trkpt lat="43.26303900" lon="0.36803000"><ele>407.8703</ele><time>2008-10-19T19:17:11Z</time></trkpt>
<trkpt lat="43.26291300" lon="0.36761600"><ele>403.994232</ele><time>2008-10-19T19:17:20Z</time></trkpt>
<trkpt lat="43.26259600" lon="0.36760300"><ele>406.634094</ele><time>2008-10-19T19:17:28Z</time></trkpt>
<trkpt lat="43.26226800" lon="0.36752800"><ele>404.695374</ele><time>2008-10-19T19:17:37Z</time></trkpt>
<trkpt lat="43.26179500" lon="0.36766700"><ele>402.650635</ele><time>2008-10-19T19:17:50Z</time></trkpt>
<trkpt lat="43.26129200" lon="0.36769700"><ele>400.485016</ele><time>2008-10-19T19:18:04Z</time></trkpt>
<trkpt lat="43.26094100" lon="0.36778200"><ele>399.184296</ele><time>2008-10-19T19:18:13Z</time></trkpt>
<trkpt lat="43.26042600" lon="0.36802100"><ele>399.291595</ele><time>2008-10-19T19:18:28Z</time></trkpt>
<trkpt lat="43.26012000" lon="0.36781000"><ele>399.583282</ele><time>2008-10-19T19:18:37Z</time></trkpt>
<trkpt lat="43.25966600" lon="0.36743200"><ele>400.728607</ele><time>2008-10-19T19:18:51Z</time></trkpt>
<trkpt lat="43.25915900" lon="0.36704400"><ele>399.391937</ele><time>2008-10-19T19:19:07Z</time></trkpt>
<trkpt lat="43.25885400" lon="0.36679600"><ele>395.28009</ele><time>2008-10-19T19:19:16Z</time></trkpt>
<trkpt lat="43.25849900" lon="0.36641500"><ele>393.157654</ele><time>2008-10-19T19:19:28Z</time></trkpt>
<trkpt lat="43.25830800" lon="0.36713400"><ele>394.74942</ele><time>2008-10-19T19:19:43Z</time></trkpt>
<trkpt lat="43.25816700" lon="0.36795100"><ele>393.530762</ele><time>2008-10-19T19:19:59Z</time></trkpt>
<trkpt lat="43.25796900" lon="0.36897900"><ele>387.485779</ele><time>2008-10-19T19:20:20Z</time></trkpt>
<trkpt lat="43.25788500" lon="0.36968300"><ele>382.873535</ele><time>2008-10-19T19:20:34Z</time></trkpt>
<trkpt lat="43.25788900" lon="0.37015000"><ele>380.39151</ele><time>2008-10-19T19:20:43Z</time></trkpt>
<trkpt lat="43.25761800" lon="0.37073700"><ele>375.837067</ele><time>2008-10-19T19:20:57Z</time></trkpt>
<trkpt lat="43.25703400" lon="0.37208500"><ele>366.093109</ele><time>2008-10-19T19:21:27Z</time></trkpt>
<trkpt lat="43.25809500" lon="0.37334000"><ele>362.687714</ele><time>2008-10-19T19:22:04Z</time></trkpt>
<trkpt lat="43.25783900" lon="0.37375500"><ele>360.588654</ele><time>2008-10-19T19:22:15Z</time></trkpt>
<trkpt lat="43.25745800" lon="0.37368100"><ele>360.10022</ele><time>2008-10-19T19:22:25Z</time></trkpt>
<trkpt lat="43.25663800" lon="0.37327900"><ele>357.283508</ele><time>2008-10-19T19:22:49Z</time></trkpt>
<trkpt lat="43.25621800" lon="0.37307200"><ele>356.928711</ele><time>2008-10-19T19:23:01Z</time></trkpt>
<trkpt lat="43.25593600" lon="0.37307000"><ele>355.711456</ele><time>2008-10-19T19:23:08Z</time></trkpt>
<trkpt lat="43.25566500" lon="0.37357000"><ele>353.48938</ele><time>2008-10-19T19:23:20Z</time></trkpt>
<trkpt lat="43.25532200" lon="0.37361900"><ele>353.52475</ele><time>2008-10-19T19:23:29Z</time></trkpt>
<trkpt lat="43.25473000" lon="0.37339400"><ele>353.903625</ele><time>2008-10-19T19:23:46Z</time></trkpt>
<trkpt lat="43.25419600" lon="0.37360900"><ele>353.350037</ele><time>2008-10-19T19:24:01Z</time></trkpt>
<trkpt lat="43.25378000" lon="0.37374600"><ele>352.545593</ele><time>2008-10-19T19:24:12Z</time></trkpt>
<trkpt lat="43.25331100" lon="0.37377400"><ele>351.929779</ele><time>2008-10-19T19:24:25Z</time></trkpt>
<trkpt lat="43.25241500" lon="0.37359600"><ele>351.518494</ele><time>2008-10-19T19:24:49Z</time></trkpt>
<trkpt lat="43.25140800" lon="0.37334700"><ele>350.635315</ele><time>2008-10-19T19:25:16Z</time></trkpt>
<trkpt lat="43.25087400" lon="0.37330400"><ele>350.119202</ele><time>2008-10-19T19:25:30Z</time></trkpt>
<trkpt lat="43.24971400" lon="0.37352800"><ele>347.116333</ele><time>2008-10-19T19:26:02Z</time></trkpt>
<trkpt lat="43.24935500" lon="0.37453600"><ele>344.787445</ele><time>2008-10-19T19:26:24Z</time></trkpt>
<trkpt lat="43.24910700" lon="0.37518400"><ele>343.369232</ele><time>2008-10-19T19:26:38Z</time></trkpt>
<trkpt lat="43.24859600" lon="0.37565700"><ele>342.7146</ele><time>2008-10-19T19:26:54Z</time></trkpt>
<trkpt lat="43.24837100" lon="0.37645100"><ele>341.494202</ele><time>2008-10-19T19:27:11Z</time></trkpt>
<trkpt lat="43.24807400" lon="0.37664600"><ele>340.442627</ele><time>2008-10-19T19:27:20Z</time></trkpt>
<trkpt lat="43.24715400" lon="0.37655400"><ele>339.899872</ele><time>2008-10-19T19:27:44Z</time></trkpt>
<trkpt lat="43.24680300" lon="0.37672600"><ele>339.63446</ele><time>2008-10-19T19:27:54Z</time></trkpt>
<trkpt lat="43.24656300" lon="0.37753400"><ele>336.959198</ele><time>2008-10-19T19:28:11Z</time></trkpt>
<trkpt lat="43.24626200" lon="0.37844100"><ele>335.808075</ele><time>2008-10-19T19:28:31Z</time></trkpt>
<trkpt lat="43.24601400" lon="0.37911400"><ele>334.329498</ele><time>2008-10-19T19:28:45Z</time></trkpt>
<trkpt lat="43.24543000" lon="0.37870300"><ele>337.692902</ele><time>2008-10-19T19:29:03Z</time></trkpt>
<trkpt lat="43.24494900" lon="0.37959300"><ele>340.346832</ele><time>2008-10-19T19:29:24Z</time></trkpt>
<trkpt lat="43.24474300" lon="0.38043600"><ele>339.897614</ele><time>2008-10-19T19:29:42Z</time></trkpt>
<trkpt lat="43.24458300" lon="0.38070000"><ele>340.483185</ele><time>2008-10-19T19:29:48Z</time></trkpt>
<trkpt lat="43.24432000" lon="0.38063500"><ele>343.242004</ele><time>2008-10-19T19:29:56Z</time></trkpt>
<trkpt lat="43.24409100" lon="0.38071600"><ele>344.44928</ele><time>2008-10-19T19:30:02Z</time></trkpt>
<trkpt lat="43.24392700" lon="0.38074600"><ele>344.451294</ele><time>2008-10-19T19:30:06Z</time></trkpt>
<trkpt lat="43.24392700" lon="0.38129900"><ele>345.496613</ele><time>2008-10-19T19:30:17Z</time></trkpt>
<trkpt lat="43.24431200" lon="0.38149600"><ele>341.809601</ele><time>2008-10-19T19:30:28Z</time></trkpt>
<trkpt lat="43.24481200" lon="0.38214200"><ele>341.183655</ele><time>2008-10-19T19:30:46Z</time></trkpt>
<trkpt lat="43.24511700" lon="0.38314000"><ele>347.985077</ele><time>2008-10-19T19:31:07Z</time></trkpt>
<trkpt lat="43.24534200" lon="0.38378400"><ele>356.177246</ele><time>2008-10-19T19:31:21Z</time></trkpt>
<trkpt lat="43.24565500" lon="0.38484300"><ele>372.562714</ele><time>2008-10-19T19:31:44Z</time></trkpt>
<trkpt lat="43.24594900" lon="0.38594000"><ele>376.790405</ele><time>2008-10-19T19:32:06Z</time></trkpt>
<trkpt lat="43.24651300" lon="0.38635100"><ele>371.759796</ele><time>2008-10-19T19:32:23Z</time></trkpt>
<trkpt lat="43.24728800" lon="0.38684100"><ele>371.139954</ele><time>2008-10-19T19:32:46Z</time></trkpt>
<trkpt lat="43.24778000" lon="0.38731600"><ele>369.103668</ele><time>2008-10-19T19:33:02Z</time></trkpt>
<trkpt lat="43.24810800" lon="0.38790700"><ele>368.104767</ele><time>2008-10-19T19:33:17Z</time></trkpt>
<trkpt lat="43.24902300" lon="0.38849100"><ele>365.839661</ele><time>2008-10-19T19:33:44Z</time></trkpt>
<trkpt lat="43.25024400" lon="0.38908900"><ele>373.409637</ele><time>2008-10-19T19:34:18Z</time></trkpt>
<trkpt lat="43.25129300" lon="0.38937300"><ele>378.680359</ele><time>2008-10-19T19:34:47Z</time></trkpt>
<trkpt lat="43.25194900" lon="0.39005200"><ele>381.09021</ele><time>2008-10-19T19:35:09Z</time></trkpt>
<trkpt lat="43.25272800" lon="0.39078800"><ele>380.263336</ele><time>2008-10-19T19:35:34Z</time></trkpt>
<trkpt lat="43.25327300" lon="0.39163000"><ele>379.83316</ele><time>2008-10-19T19:35:56Z</time></trkpt>
<trkpt lat="43.25353200" lon="0.39243300"><ele>378.175629</ele><time>2008-10-19T19:36:13Z</time></trkpt>
<trkpt lat="43.25396300" lon="0.39272600"><ele>378.256561</ele><time>2008-10-19T19:36:26Z</time></trkpt>
</trkseg></trk></gpx>